Time;durP1;ratioP1;P1;durP2;ratioP2;P2;SDS_P1;SDS_P2;PMS_P1;PMS_P2;Temp;Humidity;BMP_temperature;BMP_pressure;BME280_temperature;BME280_humidity;BME280_pressure;Samples;Min_cycle;Max_cycle;Signal;HPM_P1;HPM_P2
2023/01/24 00:02:00;;;;;;;1.50;1.40;;;23.30;37.90;;;;;;5038832;28;89214;-55
2023/01/24 00:04:28;;;;;;;1.70;1.20;;;23.20;38.70;;;;;;5042333;27;89061;-56
2023/01/24 00:06:56;;;;;;;1.30;1.20;;;23.20;37.80;;;;;;5042663;28;86994;-56
2023/01/24 00:09:26;;;;;;;1.63;1.20;;;23.10;37.80;;;;;;5042553;28;87088;-56
2023/01/24 00:11:54;;;;;;;1.27;1.13;;;23.10;37.80;;;;;;5042635;28;87101;-56
2023/01/24 00:14:22;;;;;;;2.20;1.30;;;23.00;37.80;;;;;;5041842;28;87804;-56
2023/01/24 00:16:50;;;;;;;1.87;1.50;;;22.90;37.80;;;;;;5042223;28;87034;-57
2023/01/24 00:19:18;;;;;;;1.00;0.90;;;22.90;37.80;;;;;;5042529;28;86367;-56
2023/01/24 00:21:46;;;;;;;1.73;1.40;;;22.90;37.90;;;;;;5042294;28;89088;-55
2023/01/24 00:24:14;;;;;;;3.10;1.83;;;22.80;37.80;;;;;;5042186;27;87807;-57
2023/01/24 00:26:43;;;;;;;2.20;1.53;;;22.70;38.50;;;;;;5040628;27;87981;-56
2023/01/24 00:29:11;;;;;;;1.53;1.10;;;22.60;37.80;;;;;;5042475;27;87059;-56
2023/01/24 00:31:39;;;;;;;1.33;1.17;;;22.60;38.50;;;;;;5037514;28;88283;-56
2023/01/24 00:34:07;;;;;;;1.30;1.20;;;22.60;37.90;;;;;;5042351;28;87760;-56
2023/01/24 00:36:35;;;;;;;1.30;1.20;;;22.50;37.90;;;;;;5041836;28;87102;-56
2023/01/24 00:39:03;;;;;;;3.73;1.23;;;22.50;37.90;;;;;;5042282;27;87058;-56
2023/01/24 00:41:31;;;;;;;3.03;2.03;;;22.40;37.80;;;;;;5041512;27;88456;-56
2023/01/24 00:44:01;;;;;;;1.70;1.00;;;22.40;37.90;;;;;;5041492;27;87833;-57
2023/01/24 00:46:28;;;;;;;0.97;0.90;;;22.40;37.90;;;;;;5041539;27;87555;-56
2023/01/24 00:48:57;;;;;;;2.90;1.63;;;22.40;37.90;;;;;;5040865;28;87173;-57
2023/01/24 00:51:25;;;;;;;1.43;1.10;;;22.30;37.90;;;;;;5040115;28;89164;-56
2023/01/24 00:53:53;;;;;;;1.93;1.77;;;22.30;37.90;;;;;;5040847;28;89017;-56
2023/01/24 00:56:21;;;;;;;1.40;1.30;;;22.20;37.90;;;;;;5041602;27;87071;-56
2023/01/24 00:58:49;;;;;;;1.73;1.50;;;22.20;37.90;;;;;;5041252;28;87102;-57
2023/01/24 01:01:18;;;;;;;1.17;1.07;;;22.20;37.90;;;;;;5041613;28;89152;-56
2023/01/24 01:03:46;;;;;;;1.23;1.10;;;22.20;37.90;;;;;;5025635;28;88863;-56
2023/01/24 01:06:15;;;;;;;1.40;1.30;;;22.20;38.00;;;;;;5033577;28;87068;-56
2023/01/24 01:08:43;;;;;;;1.20;1.03;;;22.10;37.90;;;;;;5041913;28;86314;-56
2023/01/24 01:11:11;;;;;;;1.50;1.40;;;22.10;37.90;;;;;;5040226;28;88262;-55
2023/01/24 01:13:39;;;;;;;1.13;1.03;;;22.10;38.70;;;;;;5041395;28;87803;-56
2023/01/24 01:16:08;;;;;;;1.90;1.03;;;22.00;37.90;;;;;;5035194;27;87981;-56
2023/01/24 01:18:38;;;;;;;1.77;1.40;;;22.00;37.90;;;;;;5034166;28;87013;-57
2023/01/24 01:21:06;;;;;;;2.47;1.50;;;22.00;37.90;;;;;;5040824;28;88211;-56
2023/01/24 01:23:34;;;;;;;1.27;1.10;;;21.90;37.90;;;;;;5040620;27;87683;-61
2023/01/24 01:26:02;;;;;;;1.30;1.17;;;21.90;37.90;;;;;;5040988;28;87084;-56
2023/01/24 01:28:31;;;;;;;2.23;1.00;;;21.90;38.00;;;;;;5041294;28;86965;-56
2023/01/24 01:30:59;;;;;;;2.40;1.30;;;21.90;38.00;;;;;;5040900;28;88166;-56
2023/01/24 01:33:27;;;;;;;2.43;1.33;;;21.80;37.90;;;;;;5041176;28;87709;-58
2023/01/24 01:35:56;;;;;;;1.57;1.20;;;21.80;37.90;;;;;;5041448;27;87217;-56
2023/01/24 01:38:27;;;;;;;8.50;1.47;;;21.80;38.00;;;;;;5041124;28;87771;-56
2023/01/24 01:40:55;;;;;;;1.30;1.07;;;21.80;38.00;;;;;;5040290;28;88829;-56
2023/01/24 01:43:25;;;;;;;1.70;1.40;;;21.70;37.90;;;;;;5040768;27;88867;-56
2023/01/24 01:45:53;;;;;;;0.90;0.90;;;21.70;38.00;;;;;;5041251;27;86959;-55
2023/01/24 01:48:28;;;;;;;2.53;1.30;;;21.70;38.00;;;;;;5040433;28;87106;-56
2023/01/24 01:51:01;;;;;;;1.60;1.50;;;21.70;38.00;;;;;;5040601;28;87238;-56
2023/01/24 01:53:31;;;;;;;1.83;1.50;;;21.60;37.90;;;;;;5040777;28;87956;-56
2023/01/24 01:56:00;;;;;;;1.50;1.00;;;21.60;37.90;;;;;;5039847;27;87471;-56
2023/01/24 01:58:28;;;;;;;1.10;1.00;;;21.60;38.00;;;;;;5041872;27;86735;-56
2023/01/24 02:00:56;;;;;;;2.13;1.53;;;21.60;38.00;;;;;;5041435;27;87157;-57
2023/01/24 02:03:39;;;;;;;2.33;1.80;;;21.60;38.00;;;;;;5040191;27;88903;-56
2023/01/24 02:06:22;;;;;;;2.20;1.30;;;21.50;38.00;;;;;;5040494;27;88071;-56
2023/01/24 02:08:50;;;;;;;1.50;0.93;;;21.50;38.00;;;;;;5020906;28;87029;-56
2023/01/24 02:16:57;;;;;;;1.50;1.10;;;21.40;38.00;;;;;;4992614;28;87082;-56
2023/01/24 02:19:37;;;;;;;1.47;1.37;;;21.40;38.00;;;;;;5046080;27;87111;-56
2023/01/24 02:22:11;;;;;;;1.20;1.10;;;21.30;38.00;;;;;;5044353;27;88256;-56
2023/01/24 02:24:41;;;;;;;1.97;1.27;;;21.30;38.00;;;;;;5040521;28;88885;-56
2023/01/24 02:27:11;;;;;;;1.47;1.13;;;21.30;38.70;;;;;;5039710;27;87131;-55
2023/01/24 02:29:38;;;;;;;1.70;1.60;;;21.30;38.00;;;;;;5041018;28;87047;-56
2023/01/24 02:32:07;;;;;;;2.07;1.50;;;21.30;38.00;;;;;;5039254;27;88985;-56
2023/01/24 02:34:35;;;;;;;1.50;1.10;;;21.30;38.10;;;;;;5041023;27;89566;-55
2023/01/24 02:37:05;;;;;;;1.37;1.10;;;21.30;38.10;;;;;;5052055;27;86922;-56
2023/01/24 02:39:36;;;;;;;2.30;1.13;;;21.30;38.10;;;;;;5040484;27;87096;-56
2023/01/24 02:42:06;;;;;;;3.13;1.33;;;21.30;38.10;;;;;;5040103;27;87915;-56
2023/01/24 02:44:39;;;;;;;1.00;0.90;;;21.20;38.00;;;;;;5041066;27;87782;-56
2023/01/24 02:47:07;;;;;;;2.63;1.47;;;21.20;38.10;;;;;;5041086;27;87093;-56
2023/01/24 02:49:35;;;;;;;1.47;1.20;;;21.20;38.10;;;;;;5042162;27;86280;-56
2023/01/24 02:54:49;;;;;;;1.70;1.40;;;21.20;38.20;;;;;;5040823;27;87802;-56
2023/01/24 03:00:06;;;;;;;1.20;1.00;;;21.10;38.10;;;;;;5040749;27;87083;-55
2023/01/24 03:02:34;;;;;;;1.33;0.90;;;21.10;38.10;;;;;;5036851;27;89116;-57
2023/01/24 03:05:02;;;;;;;1.60;1.50;;;21.10;38.10;;;;;;5039442;27;87702;-56
2023/01/24 03:07:41;;;;;;;0.97;0.97;;;21.10;38.20;;;;;;5053046;27;86962;-55
2023/01/24 03:10:10;;;;;;;2.07;1.60;;;21.00;38.10;;;;;;5022671;28;86978;-55
2023/01/24 03:34:49;;;;;;;2.77;1.40;;;20.80;38.20;;;;;;5040656;28;88956;-56
2023/01/24 03:39:53;;;;;;;1.57;1.10;;;20.80;38.20;;;;;;5041743;27;87810;-56
2023/01/24 03:40:08;;;;;;;1.10;1.00;;;20.80;38.20;;;;;;5046070;27;87049;-55
2023/01/24 03:42:47;;;;;;;1.47;1.33;;;20.80;38.20;;;;;;5038389;28;86437;-56
2023/01/24 03:45:17;;;;;;;2.00;1.13;;;20.80;38.20;;;;;;5022037;28;88334;-56
2023/01/24 03:47:54;;;;;;;2.10;1.20;;;20.70;38.10;;;;;;5030700;28;87956;-56
2023/01/24 03:53:08;;;;;;;1.23;1.13;;;20.70;38.20;;;;;;5043994;27;87092;-56
2023/01/24 03:55:36;;;;;;;1.40;1.10;;;20.70;38.10;;;;;;5062423;27;87112;-56
2023/01/24 03:58:04;;;;;;;1.87;0.70;;;20.70;38.20;;;;;;5042851;27;88789;-56
2023/01/24 04:00:32;;;;;;;1.47;1.17;;;20.70;38.20;;;;;;5037020;27;88639;-58
2023/01/24 04:03:02;;;;;;;1.30;0.93;;;20.70;38.20;;;;;;5041281;27;87094;-57
2023/01/24 04:05:30;;;;;;;1.40;1.10;;;20.70;38.20;;;;;;5040714;27;88353;-58
2023/01/24 04:07:58;;;;;;;1.53;1.20;;;20.70;38.30;;;;;;5043336;27;86526;-54
2023/01/24 04:10:26;;;;;;;0.93;0.80;;;20.70;38.30;;;;;;5035908;28;87273;-52
2023/01/24 04:12:55;;;;;;;1.17;1.07;;;20.70;38.40;;;;;;5042078;27;88340;-53
2023/01/24 04:15:24;;;;;;;1.73;1.30;;;20.80;38.50;;;;;;5026266;27;88009;-54
2023/01/24 04:17:53;;;;;;;1.60;1.00;;;20.90;38.60;;;;;;5040396;27;89770;-53
2023/01/24 04:20:22;;;;;;;0.87;0.80;;;20.90;38.50;;;;;;5047056;27;87042;-53
2023/01/24 04:22:50;;;;;;;1.40;1.30;;;21.10;38.70;;;;;;5060915;27;87162;-53
2023/01/24 04:25:18;;;;;;;1.40;1.10;;;21.30;38.70;;;;;;5041566;27;87192;-53
2023/01/24 04:27:47;;;;;;;0.73;0.70;;;21.40;38.60;;;;;;5040975;27;88829;-53
2023/01/24 04:30:16;;;;;;;1.00;0.90;;;21.70;38.70;;;;;;5042138;27;87167;-54
2023/01/24 04:32:44;;;;;;;0.67;0.67;;;21.90;38.70;;;;;;5043886;27;86427;-54
2023/01/24 04:35:16;;;;;;;0.80;0.80;;;22.70;39.00;;;;;;5042126;27;87909;-54
2023/01/24 04:37:46;;;;;;;0.70;0.70;;;22.30;38.50;;;;;;5047772;27;89125;-54
2023/01/24 04:40:14;;;;;;;0.90;0.83;;;22.50;38.40;;;;;;5041491;27;87943;-53
2023/01/24 04:42:42;;;;;;;1.70;0.83;;;22.70;38.40;;;;;;5047866;27;87465;-55
2023/01/24 04:45:11;;;;;;;1.47;1.30;;;22.80;38.40;;;;;;5041622;27;89314;-53
2023/01/24 04:47:39;;;;;;;1.27;0.83;;;22.90;38.40;;;;;;5040971;27;87667;-57
2023/01/24 04:50:08;;;;;;;0.70;0.70;;;23.00;38.50;;;;;;5041186;27;88190;-54
2023/01/24 04:52:36;;;;;;;0.70;0.70;;;23.00;38.50;;;;;;5046178;27;87136;-53
2023/01/24 04:55:06;;;;;;;6.40;1.10;;;23.00;38.50;;;;;;5043951;27;88118;-55
2023/01/24 04:57:34;;;;;;;0.77;0.77;;;22.90;38.50;;;;;;5040846;27;87735;-55
2023/01/24 05:00:04;;;;;;;2.53;0.83;;;22.90;39.20;;;;;;5039708;27;87104;-54
2023/01/24 05:02:32;;;;;;;0.80;0.70;;;22.90;38.70;;;;;;5048175;27;87064;-54
2023/01/24 05:05:00;;;;;;;0.97;0.97;;;22.90;38.80;;;;;;5039349;28;89458;-54
2023/01/24 05:07:28;;;;;;;1.10;1.00;;;22.80;38.80;;;;;;5041922;27;88582;-54
2023/01/24 05:09:56;;;;;;;0.83;0.70;;;22.80;38.90;;;;;;5040564;27;87252;-54
2023/01/24 05:12:25;;;;;;;1.43;1.00;;;22.70;38.90;;;;;;5040998;27;87546;-54
2023/01/24 05:14:53;;;;;;;2.53;1.00;;;22.60;38.90;;;;;;5045675;27;88045;-54
2023/01/24 05:17:21;;;;;;;0.60;0.60;;;22.60;39.00;;;;;;5039178;27;87688;-54
2023/01/24 05:19:49;;;;;;;0.97;0.87;;;22.60;39.10;;;;;;5040829;27;87109;-54
2023/01/24 05:22:17;;;;;;;0.93;0.77;;;22.50;39.10;;;;;;5041790;27;86299;-54
2023/01/24 05:24:45;;;;;;;0.80;0.80;;;22.50;39.20;;;;;;5047110;27;87576;-54
2023/01/24 05:27:13;;;;;;;2.33;0.80;;;22.40;39.20;;;;;;5040983;27;87630;-54
2023/01/24 05:29:43;;;;;;;1.57;1.10;;;22.40;39.30;;;;;;5046051;27;89925;-54
2023/01/24 05:32:11;;;;;;;1.17;1.07;;;22.40;39.40;;;;;;5029755;27;87125;-54
2023/01/24 05:34:39;;;;;;;2.73;1.10;;;22.30;39.30;;;;;;5040835;27;88246;-54
2023/01/24 05:37:07;;;;;;;3.40;0.80;;;22.30;39.40;;;;;;5040611;28;87766;-54
2023/01/24 05:39:35;;;;;;;0.70;0.70;;;22.20;39.50;;;;;;5043662;27;87112;-54
2023/01/24 05:42:03;;;;;;;1.33;1.20;;;22.20;39.50;;;;;;5036396;27;87148;-54
2023/01/24 05:44:31;;;;;;;1.23;0.90;;;22.10;39.60;;;;;;5041151;27;88612;-54
2023/01/24 05:47:00;;;;;;;0.87;0.87;;;22.10;39.60;;;;;;5040942;27;88772;-54
2023/01/24 05:49:28;;;;;;;1.63;1.20;;;22.00;39.60;;;;;;5040896;27;87072;-58
2023/01/24 05:51:56;;;;;;;1.50;1.40;;;22.00;39.60;;;;;;5041578;27;87069;-55
2023/01/24 05:54:24;;;;;;;1.20;1.10;;;21.90;39.60;;;;;;5051218;27;90198;-55
2023/01/24 05:56:52;;;;;;;1.67;1.00;;;21.90;39.70;;;;;;5040651;27;88817;-54
2023/01/24 05:59:20;;;;;;;1.23;1.03;;;21.90;39.80;;;;;;5041883;27;87165;-54
2023/01/24 06:01:48;;;;;;;0.80;0.80;;;21.80;40.00;;;;;;5040797;27;87015;-54
2023/01/24 06:04:17;;;;;;;1.70;1.30;;;21.80;40.00;;;;;;5037580;27;87925;-55
2023/01/24 06:06:46;;;;;;;2.13;1.40;;;21.80;40.80;;;;;;5039551;28;87922;-55
2023/01/24 06:09:13;;;;;;;1.43;1.33;;;21.70;40.10;;;;;;5040272;27;87209;-54
2023/01/24 06:11:41;;;;;;;1.17;0.80;;;21.70;40.20;;;;;;5040708;28;86313;-54
2023/01/24 06:14:09;;;;;;;0.80;0.80;;;21.70;40.30;;;;;;5052455;27;88080;-55
2023/01/24 06:16:38;;;;;;;1.27;1.13;;;21.70;40.40;;;;;;5036805;27;88906;-54
2023/01/24 06:19:07;;;;;;;1.23;1.13;;;21.70;40.50;;;;;;5051224;27;88013;-55
2023/01/24 06:21:44;;;;;;;1.50;1.40;;;21.60;40.50;;;;;;5039907;27;87083;-54
2023/01/24 06:24:17;;;;;;;1.03;0.90;;;21.60;40.60;;;;;;5033577;27;87769;-55
2023/01/24 06:26:46;;;;;;;1.60;1.47;;;21.60;40.60;;;;;;5039232;27;87021;-55
2023/01/24 06:29:14;;;;;;;1.10;1.00;;;21.60;40.60;;;;;;5039959;27;87043;-55
2023/01/24 06:31:47;;;;;;;1.20;1.00;;;21.60;40.70;;;;;;5041060;27;87217;-56
2023/01/24 06:34:35;;;;;;;1.07;1.03;;;21.50;40.70;;;;;;5037750;27;87911;-55
2023/01/24 06:37:10;;;;;;;1.97;1.33;;;21.50;40.70;;;;;;5039227;27;87942;-53
2023/01/24 06:39:39;;;;;;;2.10;1.30;;;21.50;40.70;;;;;;5039126;27;87074;-56
2023/01/24 06:42:08;;;;;;;1.23;1.13;;;21.50;40.80;;;;;;5037926;28;87088;-56
2023/01/24 06:44:37;;;;;;;2.33;1.10;;;21.40;40.70;;;;;;5039014;28;88887;-55
2023/01/24 06:47:05;;;;;;;5.40;1.30;;;21.40;40.70;;;;;;5040085;27;88721;-55
2023/01/24 06:49:33;;;;;;;4.33;1.30;;;21.40;40.70;;;;;;5039921;27;87036;-55
2023/01/24 06:52:01;;;;;;;0.60;0.60;;;21.40;40.70;;;;;;5039863;28;87104;-55
2023/01/24 06:54:30;;;;;;;1.40;1.30;;;21.30;40.60;;;;;;5039059;28;88434;-56
2023/01/24 06:56:58;;;;;;;1.30;1.20;;;21.30;40.60;;;;;;5039606;27;87018;-53
2023/01/24 06:59:26;;;;;;;1.10;1.00;;;21.30;40.60;;;;;;5034472;27;87193;-55
2023/01/24 07:01:54;;;;;;;1.07;0.97;;;21.30;40.60;;;;;;5032504;27;86279;-55
2023/01/24 07:04:22;;;;;;;1.03;0.97;;;21.30;40.60;;;;;;5046286;27;89077;-56
2023/01/24 07:06:52;;;;;;;3.40;1.53;;;21.30;40.60;;;;;;5040323;27;87792;-56
2023/01/24 07:09:20;;;;;;;1.13;1.03;;;21.20;41.10;;;;;;5039670;27;88017;-56
2023/01/24 07:11:52;;;;;;;1.27;0.97;;;21.20;41.10;;;;;;5039452;27;87043;-61
2023/01/24 07:14:20;;;;;;;2.43;1.40;;;21.20;40.50;;;;;;5041780;27;88075;-58
2023/01/24 07:16:49;;;;;;;1.13;0.90;;;21.10;40.40;;;;;;5039990;27;87828;-55
2023/01/24 07:19:18;;;;;;;0.83;0.83;;;21.10;40.40;;;;;;5040119;27;86980;-60
2023/01/24 07:21:47;;;;;;;1.00;1.00;;;21.10;40.40;;;;;;5041897;27;87689;-58
2023/01/24 07:24:18;;;;;;;1.87;1.60;;;21.20;40.50;;;;;;5040922;27;88690;-59
2023/01/24 07:26:50;;;;;;;1.80;1.37;;;21.10;40.50;;;;;;5033937;27;88998;-58
2023/01/24 07:29:18;;;;;;;1.53;1.40;;;21.20;40.50;;;;;;5049388;27;86925;-56
2023/01/24 07:31:48;;;;;;;5.40;2.40;;;21.20;40.50;;;;;;5043797;27;87000;-55
2023/01/24 07:34:16;;;;;;;3.43;2.30;;;21.20;40.50;;;;;;5047425;27;89315;-56
2023/01/24 07:36:45;;;;;;;2.47;2.20;;;21.20;40.50;;;;;;5049297;27;90075;-59
2023/01/24 07:39:13;;;;;;;2.73;2.10;;;21.30;40.60;;;;;;5050571;27;89064;-58
2023/01/24 07:41:42;;;;;;;2.10;1.97;;;21.30;40.70;;;;;;5054630;27;87220;-57
2023/01/24 07:44:12;;;;;;;2.83;1.87;;;21.30;40.90;;;;;;5051316;27;87097;-57
2023/01/24 07:46:39;;;;;;;3.33;2.10;;;21.20;40.90;;;;;;5030224;27;88546;-57
2023/01/24 07:49:08;;;;;;;3.03;2.03;;;21.20;41.60;;;;;;5039353;27;87226;-57
2023/01/24 07:51:36;;;;;;;2.03;1.83;;;21.20;41.10;;;;;;5050223;27;86410;-58
2023/01/24 07:54:04;;;;;;;3.53;2.20;;;21.10;41.10;;;;;;5059385;27;88205;-58
2023/01/24 07:56:32;;;;;;;2.07;1.60;;;21.10;41.10;;;;;;5050543;27;88478;-59
2023/01/24 07:59:00;;;;;;;1.77;1.63;;;21.10;41.20;;;;;;5043464;27;87913;-57
2023/01/24 08:01:29;;;;;;;2.00;1.80;;;21.00;41.20;;;;;;5044932;27;87076;-57
2023/01/24 08:03:57;;;;;;;3.40;2.30;;;21.00;41.20;;;;;;5042620;27;88253;-57
2023/01/24 08:06:25;;;;;;;3.43;2.30;;;20.90;41.80;;;;;;5052212;27;87109;-58
2023/01/24 08:08:53;;;;;;;2.40;1.70;;;20.90;41.20;;;;;;5060022;27;87022;-57
2023/01/24 08:11:21;;;;;;;1.70;1.33;;;20.90;41.20;;;;;;5042690;27;87123;-58
2023/01/24 08:13:50;;;;;;;2.50;1.40;;;20.90;41.20;;;;;;5054819;27;87056;-57
2023/01/24 08:16:23;;;;;;;1.67;1.40;;;20.80;41.20;;;;;;5054470;27;87799;-57
2023/01/24 08:18:53;;;;;;;1.37;1.27;;;20.80;41.10;;;;;;5058800;27;88961;-59
2023/01/24 08:21:21;;;;;;;4.13;1.43;;;20.80;41.10;;;;;;5041243;28;87035;-57
2023/01/24 08:23:49;;;;;;;1.97;1.23;;;20.80;41.10;;;;;;5041247;27;88858;-57
2023/01/24 08:26:17;;;;;;;2.37;1.63;;;20.80;41.10;;;;;;5040791;27;89020;-57
2023/01/24 08:28:45;;;;;;;2.40;1.70;;;20.80;41.10;;;;;;5042025;28;87113;-57
2023/01/24 08:31:13;;;;;;;1.33;1.20;;;20.70;41.00;;;;;;5042354;28;87585;-57
2023/01/24 08:33:41;;;;;;;1.47;1.37;;;20.70;41.00;;;;;;5042679;28;87989;-57
2023/01/24 08:36:10;;;;;;;1.60;1.50;;;20.70;40.90;;;;;;5042720;28;88941;-57
2023/01/24 08:38:38;;;;;;;2.23;1.30;;;20.70;40.90;;;;;;5042975;27;86990;-57
2023/01/24 08:41:07;;;;;;;1.37;1.27;;;20.70;40.90;;;;;;5042999;28;86370;-57
2023/01/24 08:43:36;;;;;;;1.20;1.10;;;20.60;40.80;;;;;;5042294;28;89210;-57
2023/01/24 08:46:04;;;;;;;1.73;1.00;;;20.60;40.80;;;;;;5042312;28;87731;-59
2023/01/24 08:48:32;;;;;;;1.80;1.67;;;20.60;40.80;;;;;;5041889;28;88072;-57
2023/01/24 08:51:03;;;;;;;1.60;1.40;;;20.60;40.70;;;;;;5041968;28;87295;-57
2023/01/24 08:53:33;;;;;;;1.47;1.37;;;20.60;40.70;;;;;;5041587;28;87141;-57
2023/01/24 08:56:02;;;;;;;2.27;1.47;;;20.50;40.70;;;;;;5041853;27;87974;-57
2023/01/24 08:58:32;;;;;;;1.80;1.50;;;20.50;40.60;;;;;;5042310;27;87935;-57
2023/01/24 09:01:00;;;;;;;1.63;1.30;;;20.50;41.20;;;;;;5041503;27;87082;-57
2023/01/24 09:03:28;;;;;;;1.47;1.03;;;20.50;40.60;;;;;;5041464;28;88255;-59
2023/01/24 09:05:56;;;;;;;1.40;1.30;;;20.50;40.80;;;;;;5041667;28;87938;-58
2023/01/24 09:08:24;;;;;;;1.70;1.50;;;20.50;41.10;;;;;;5042154;28;87093;-58
2023/01/24 09:10:54;;;;;;;2.30;1.43;;;20.40;40.40;;;;;;5042296;28;87005;-59
2023/01/24 09:13:22;;;;;;;2.27;1.47;;;20.40;40.40;;;;;;5041786;28;88902;-58
2023/01/24 09:15:50;;;;;;;1.57;1.00;;;20.40;40.40;;;;;;5042277;27;88749;-57
2023/01/24 09:18:20;;;;;;;1.50;1.40;;;20.40;40.30;;;;;;5042084;28;87084;-57
2023/01/24 09:20:48;;;;;;;1.50;1.30;;;20.40;40.30;;;;;;5041937;28;87667;-57
2023/01/24 09:23:16;;;;;;;1.27;1.10;;;20.30;40.20;;;;;;5041403;28;89144;-57
2023/01/24 09:25:50;;;;;;;1.90;1.40;;;20.30;40.20;;;;;;5041281;27;87065;-57
2023/01/24 09:28:20;;;;;;;1.47;1.37;;;20.30;40.80;;;;;;5041891;28;87064;-57
2023/01/24 09:30:48;;;;;;;3.73;1.43;;;20.30;40.10;;;;;;5041950;27;86203;-57
2023/01/24 09:33:17;;;;;;;2.37;1.10;;;20.30;40.10;;;;;;5041229;28;88143;-57
2023/01/24 09:35:52;;;;;;;2.80;1.10;;;20.20;40.00;;;;;;5041554;27;87820;-57
2023/01/24 09:38:22;;;;;;;2.20;1.73;;;20.20;40.00;;;;;;5041245;28;87989;-59
2023/01/24 09:40:54;;;;;;;2.57;1.30;;;20.20;39.90;;;;;;5041350;28;87133;-57
2023/01/24 09:43:46;;;;;;;2.10;1.50;;;20.20;39.90;;;;;;5041683;28;87097;-57
2023/01/24 09:46:21;;;;;;;1.97;1.70;;;20.20;39.90;;;;;;5041560;27;87976;-57
2023/01/24 09:48:50;;;;;;;2.20;1.50;;;20.20;39.80;;;;;;5041538;27;87053;-57
2023/01/24 09:51:20;;;;;;;2.00;1.10;;;20.20;39.80;;;;;;5041594;28;87056;-57
2023/01/24 09:53:50;;;;;;;1.60;1.50;;;20.20;39.70;;;;;;5041015;28;89192;-58
2023/01/24 09:56:26;;;;;;;1.37;1.27;;;20.10;39.70;;;;;;5041494;27;87981;-57
2023/01/24 09:59:14;;;;;;;1.23;1.00;;;20.10;39.60;;;;;;5041733;27;87107;-57
2023/01/24 10:01:42;;;;;;;2.10;1.37;;;20.10;39.60;;;;;;5041687;28;86996;-57
2023/01/24 10:04:19;;;;;;;2.23;1.47;;;20.10;39.60;;;;;;5040890;28;89029;-57
2023/01/24 10:07:19;;;;;;;1.40;1.30;;;20.10;39.60;;;;;;5041390;27;88538;-57
2023/01/24 10:09:55;;;;;;;2.27;1.67;;;20.00;39.50;;;;;;5032917;27;87014;-58
2023/01/24 10:12:32;;;;;;;1.50;1.37;;;20.00;39.50;;;;;;5041428;28;87101;-58
2023/01/24 10:15:10;;;;;;;2.77;1.63;;;20.00;39.40;;;;;;5040892;28;89215;-57
2023/01/24 10:18:01;;;;;;;2.10;1.30;;;20.00;39.40;;;;;;5040293;27;87904;-58
2023/01/24 10:20:37;;;;;;;2.37;1.50;;;20.00;39.40;;;;;;5031328;27;87177;-57
2023/01/24 10:23:11;;;;;;;1.80;1.70;;;20.00;39.40;;;;;;5041222;28;86302;-56
2023/01/24 10:25:50;;;;;;;1.60;1.20;;;20.00;39.40;;;;;;5040226;28;88132;-56
2023/01/24 10:28:21;;;;;;;2.37;1.83;;;19.90;39.30;;;;;;5041017;27;87583;-57
2023/01/24 10:30:54;;;;;;;2.20;1.67;;;19.90;39.20;;;;;;5040959;27;87942;-58
2023/01/24 10:33:22;;;;;;;2.60;1.93;;;19.90;39.20;;;;;;5040797;28;88732;-57
2023/01/24 10:35:56;;;;;;;2.03;1.37;;;19.90;39.20;;;;;;5040903;28;87112;-58
2023/01/24 10:38:24;;;;;;;1.37;1.00;;;19.90;39.20;;;;;;5040769;27;87944;-58
2023/01/24 10:40:53;;;;;;;1.63;1.00;;;19.90;39.20;;;;;;5040711;27;87530;-57
2023/01/24 10:43:23;;;;;;;2.70;1.40;;;19.90;39.20;;;;;;5041597;28;87072;-57
2023/01/24 10:46:00;;;;;;;2.33;1.33;;;19.90;39.20;;;;;;5040753;28;88125;-57
2023/01/24 10:48:36;;;;;;;1.40;1.30;;;19.90;39.10;;;;;;5040729;27;88807;-57
2023/01/24 10:51:12;;;;;;;1.60;1.43;;;19.80;39.10;;;;;;5041406;28;87055;-57
2023/01/24 10:53:40;;;;;;;2.33;1.40;;;19.80;39.10;;;;;;5040522;27;87119;-57
2023/01/24 10:56:08;;;;;;;2.60;1.60;;;19.80;39.00;;;;;;5039595;28;88033;-58
2023/01/24 10:58:36;;;;;;;2.63;1.70;;;19.80;39.10;;;;;;5040250;28;88557;-56
2023/01/24 11:01:08;;;;;;;1.77;1.57;;;19.80;39.00;;;;;;5040391;28;87000;-57
2023/01/24 11:03:40;;;;;;;1.90;1.47;;;19.80;39.00;;;;;;5040259;28;87185;-57
2023/01/24 11:06:24;;;;;;;1.63;1.40;;;19.70;38.90;;;;;;5040355;28;89145;-57
2023/01/24 11:08:56;;;;;;;2.87;1.50;;;19.70;38.90;;;;;;5040252;27;87742;-58
2023/01/24 11:11:25;;;;;;;1.63;1.50;;;19.70;38.90;;;;;;5040819;27;87127;-58
2023/01/24 11:13:57;;;;;;;1.97;1.37;;;19.70;38.90;;;;;;5040785;28;86224;-57
2023/01/24 11:16:28;;;;;;;2.70;1.60;;;19.70;38.90;;;;;;5040530;28;88165;-58
2023/01/24 11:18:58;;;;;;;2.40;1.67;;;19.70;38.90;;;;;;5040105;27;87836;-56
2023/01/24 11:21:26;;;;;;;2.03;1.70;;;19.70;38.90;;;;;;5039588;27;87990;-57
2023/01/24 11:24:02;;;;;;;2.03;1.23;;;19.70;38.80;;;;;;5039515;28;87110;-56
2023/01/24 11:26:31;;;;;;;2.17;1.93;;;19.70;39.10;;;;;;5039566;28;88181;-57
2023/01/24 11:29:00;;;;;;;2.57;1.60;;;19.70;38.80;;;;;;5041845;27;87815;-58
2023/01/24 11:31:34;;;;;;;1.60;1.20;;;19.70;38.80;;;;;;5043388;28;87011;-56
2023/01/24 11:34:19;;;;;;;1.33;1.23;;;19.70;38.80;;;;;;5043578;28;87047;-58
2023/01/24 11:36:51;;;;;;;4.30;1.63;;;19.70;38.80;;;;;;5043571;28;89174;-57
2023/01/24 11:39:22;;;;;;;2.20;1.53;;;19.70;38.80;;;;;;5044041;27;86549;-58
2023/01/24 11:41:55;;;;;;;2.90;1.57;;;19.60;38.70;;;;;;5043964;28;87065;-57
2023/01/24 11:44:41;;;;;;;1.37;1.23;;;19.60;39.30;;;;;;5043375;28;87083;-56
2023/01/24 11:47:12;;;;;;;1.40;1.30;;;19.60;38.70;;;;;;5042956;28;89861;-57
2023/01/24 11:50:16;;;;;;;1.80;1.40;;;19.60;38.70;;;;;;5042967;27;89827;-57
2023/01/24 11:53:13;;;;;;;2.63;1.30;;;19.60;38.70;;;;;;5020704;27;87723;-58
2023/01/24 11:55:47;;;;;;;2.70;1.50;;;19.60;38.70;;;;;;5029204;27;87831;-56
2023/01/24 11:58:25;;;;;;;2.40;1.93;;;19.60;38.70;;;;;;5042693;28;88144;-57
2023/01/24 12:00:55;;;;;;;3.83;1.90;;;19.60;38.70;;;;;;5042728;28;89042;-57
2023/01/24 12:03:39;;;;;;;1.50;1.40;;;19.50;38.60;;;;;;5043030;28;87029;-57
2023/01/24 12:06:16;;;;;;;1.43;1.33;;;19.50;38.60;;;;;;5043339;28;86351;-56
2023/01/24 12:08:54;;;;;;;1.57;1.33;;;19.60;38.70;;;;;;5042742;28;89022;-57
2023/01/24 12:11:26;;;;;;;2.77;1.67;;;19.60;38.60;;;;;;5042527;27;87816;-58
2023/01/24 12:14:23;;;;;;;1.67;1.40;;;19.70;38.60;;;;;;5042663;27;88734;-56
2023/01/24 12:16:56;;;;;;;1.60;1.50;;;19.80;38.60;;;;;;5043161;28;87035;-58
2023/01/24 12:19:38;;;;;;;2.33;1.30;;;20.00;38.50;;;;;;5042918;28;88829;-58
2023/01/24 12:22:10;;;;;;;2.07;1.70;;;20.10;38.50;;;;;;5042739;28;88913;-58
2023/01/24 12:24:39;;;;;;;1.17;1.07;;;20.30;38.50;;;;;;5042276;27;87099;-57
2023/01/24 12:27:09;;;;;;;1.30;0.83;;;20.30;38.40;;;;;;5042552;28;87050;-57
2023/01/24 12:29:39;;;;;;;2.13;1.33;;;20.40;38.40;;;;;;5042636;28;87974;-57
2023/01/24 12:32:10;;;;;;;2.47;1.60;;;20.40;38.40;;;;;;5042700;28;88979;-57
2023/01/24 12:34:43;;;;;;;1.33;1.23;;;20.40;38.40;;;;;;5042292;27;86996;-57
2023/01/24 12:37:15;;;;;;;3.73;1.60;;;20.40;38.30;;;;;;5042458;28;87070;-57
2023/01/24 12:39:46;;;;;;;1.20;1.00;;;20.40;38.30;;;;;;5041099;28;89365;-57
2023/01/24 12:42:16;;;;;;;1.33;0.93;;;20.40;38.30;;;;;;5041854;28;89784;-57
2023/01/24 12:44:48;;;;;;;1.53;1.33;;;20.30;38.20;;;;;;5042312;27;87107;-57
2023/01/24 12:47:27;;;;;;;3.30;1.40;;;20.40;38.40;;;;;;5042633;28;87157;-58
2023/01/24 12:50:05;;;;;;;2.63;1.37;;;20.30;38.30;;;;;;5042615;28;88997;-58
2023/01/24 12:52:34;;;;;;;2.37;1.50;;;20.30;38.30;;;;;;5042319;27;87974;-58
2023/01/24 12:55:05;;;;;;;1.60;1.27;;;20.30;38.30;;;;;;5042115;27;87061;-57
2023/01/24 12:57:37;;;;;;;1.73;1.63;;;20.30;38.30;;;;;;5042702;28;86346;-58
2023/01/24 13:00:10;;;;;;;1.83;1.30;;;20.30;38.30;;;;;;5042098;28;88023;-56
2023/01/24 13:02:45;;;;;;;1.43;1.23;;;20.20;38.30;;;;;;5041627;28;88869;-57
2023/01/24 13:05:24;;;;;;;3.57;1.50;;;20.20;38.30;;;;;;5041260;28;88016;-58
2023/01/24 13:07:59;;;;;;;2.87;1.63;;;20.20;38.30;;;;;;5042091;28;87086;-58
2023/01/24 13:10:37;;;;;;;1.57;1.10;;;20.10;38.20;;;;;;5041480;28;87156;-57
2023/01/24 13:13:05;;;;;;;1.37;1.27;;;20.10;38.20;;;;;;5041933;28;87794;-56
2023/01/24 13:15:37;;;;;;;1.07;0.97;;;20.10;38.20;;;;;;5042134;27;87047;-58
2023/01/24 13:18:12;;;;;;;1.17;1.00;;;20.10;38.30;;;;;;5042546;28;87039;-57
2023/01/24 13:20:56;;;;;;;1.33;1.23;;;20.00;38.30;;;;;;5041818;27;88306;-58
2023/01/24 13:23:31;;;;;;;2.17;1.33;;;20.00;38.20;;;;;;5042191;27;86587;-57
2023/01/24 13:26:28;;;;;;;4.97;1.70;;;20.00;38.20;;;;;;5042034;28;87124;-58
2023/01/24 13:29:02;;;;;;;2.83;1.93;;;20.00;38.30;;;;;;5028943;27;87007;-56
2023/01/24 13:31:46;;;;;;;2.10;1.20;;;20.00;38.20;;;;;;5041193;28;89048;-57
2023/01/24 13:34:15;;;;;;;1.67;1.40;;;19.90;38.10;;;;;;5041405;28;88608;-57
2023/01/24 13:36:48;;;;;;;2.33;1.30;;;19.90;38.10;;;;;;5041774;28;87275;-57
2023/01/24 13:39:32;;;;;;;1.70;1.23;;;19.80;38.10;;;;;;5041689;28;87030;-56
2023/01/24 13:42:05;;;;;;;1.47;1.23;;;19.80;38.20;;;;;;5041698;28;88228;-58
2023/01/24 13:44:35;;;;;;;1.77;1.30;;;19.80;38.10;;;;;;5041051;28;88892;-58